Terminal Aerodrome Forecast
Issued by NWS

Home | Current Version | Previous Version | Graphics & Text | Print | Product List | Glossary On
Versions: 1 2 3 4 5 6 7 8 9 10 11 12 13 14 15 16 17 18
000
FTUS43 KICT 021729
TAFSLN
TAF
KSLN 021729Z 0218/0318 20010G18KT P6SM FEW060
     FM030100 17007KT P6SM FEW060 SCT250
     FM031200 16005KT P6SM SCT250=

USA.gov is the U.S. government's official web portal to all federal, state and local government web resources and services.